sensor_id;sensor_type;location;lat;lon;timestamp;temperature;humidity
3770;DHT22;1900;48.890;9.190;2023-06-10T00:01:13;26.10;43.20
3770;DHT22;1900;48.890;9.190;2023-06-10T00:03:38;26.00;43.20
3770;DHT22;1900;48.890;9.190;2023-06-10T00:06:04;26.00;43.20
3770;DHT22;1900;48.890;9.190;2023-06-10T00:08:30;26.00;43.30
3770;DHT22;1900;48.890;9.190;2023-06-10T00:10:56;26.00;43.30
3770;DHT22;1900;48.890;9.190;2023-06-10T00:13:22;26.00;43.40
3770;DHT22;1900;48.890;9.190;2023-06-10T00:15:48;26.00;43.40
3770;DHT22;1900;48.890;9.190;2023-06-10T00:18:13;25.90;43.40
3770;DHT22;1900;48.890;9.190;2023-06-10T00:20:39;25.90;43.40
3770;DHT22;1900;48.890;9.190;2023-06-10T00:23:06;25.90;43.40
3770;DHT22;1900;48.890;9.190;2023-06-10T00:25:33;25.90;43.40
3770;DHT22;1900;48.890;9.190;2023-06-10T00:27:59;25.90;43.40
3770;DHT22;1900;48.890;9.190;2023-06-10T00:30:27;25.80;43.40
3770;DHT22;1900;48.890;9.190;2023-06-10T00:32:53;25.80;43.50
3770;DHT22;1900;48.890;9.190;2023-06-10T00:35:19;25.80;43.50
3770;DHT22;1900;48.890;9.190;2023-06-10T00:37:44;25.80;43.50
3770;DHT22;1900;48.890;9.190;2023-06-10T00:40:11;25.80;43.60
3770;DHT22;1900;48.890;9.190;2023-06-10T00:42:37;25.80;43.50
3770;DHT22;1900;48.890;9.190;2023-06-10T00:45:02;25.80;43.50
3770;DHT22;1900;48.890;9.190;2023-06-10T00:47:29;25.80;43.50
3770;DHT22;1900;48.890;9.190;2023-06-10T00:49:56;25.70;43.50
3770;DHT22;1900;48.890;9.190;2023-06-10T00:52:27;25.70;43.50
3770;DHT22;1900;48.890;9.190;2023-06-10T00:54:53;25.70;43.60
3770;DHT22;1900;48.890;9.190;2023-06-10T00:57:20;25.70;43.60
3770;DHT22;1900;48.890;9.190;2023-06-10T00:59:48;25.70;43.60
3770;DHT22;1900;48.890;9.190;2023-06-10T01:02:15;25.60;43.60
3770;DHT22;1900;48.890;9.190;2023-06-10T01:04:40;25.60;43.60
3770;DHT22;1900;48.890;9.190;2023-06-10T01:10:01;25.60;43.60
3770;DHT22;1900;48.890;9.190;2023-06-10T01:12:44;25.60;43.70
3770;DHT22;1900;48.890;9.190;2023-06-10T01:15:17;25.50;43.70
3770;DHT22;1900;48.890;9.190;2023-06-10T01:18:01;25.50;43.70
3770;DHT22;1900;48.890;9.190;2023-06-10T01:20:30;25.50;43.80
3770;DHT22;1900;48.890;9.190;2023-06-10T01:23:01;25.50;43.70
3770;DHT22;1900;48.890;9.190;2023-06-10T01:25:29;25.50;43.80
3770;DHT22;1900;48.890;9.190;2023-06-10T01:28:12;25.40;43.70
3770;DHT22;1900;48.890;9.190;2023-06-10T01:30:48;25.40;43.80
3770;DHT22;1900;48.890;9.190;2023-06-10T01:33:19;25.40;43.80
3770;DHT22;1900;48.890;9.190;2023-06-10T01:35:50;25.40;43.70
3770;DHT22;1900;48.890;9.190;2023-06-10T01:38:17;25.40;43.80
3770;DHT22;1900;48.890;9.190;2023-06-10T01:40:46;25.40;43.80
3770;DHT22;1900;48.890;9.190;2023-06-10T01:43:12;25.30;43.70
3770;DHT22;1900;48.890;9.190;2023-06-10T01:45:38;25.30;43.70
3770;DHT22;1900;48.890;9.190;2023-06-10T01:48:04;25.30;43.70
3770;DHT22;1900;48.890;9.190;2023-06-10T01:50:30;25.30;43.70
3770;DHT22;1900;48.890;9.190;2023-06-10T01:52:58;25.20;43.80
3770;DHT22;1900;48.890;9.190;2023-06-10T01:55:23;25.20;43.80
3770;DHT22;1900;48.890;9.190;2023-06-10T01:57:49;25.20;43.80
3770;DHT22;1900;48.890;9.190;2023-06-10T02:00:15;25.10;43.70
3770;DHT22;1900;48.890;9.190;2023-06-10T02:02:41;25.10;43.80
3770;DHT22;1900;48.890;9.190;2023-06-10T02:05:07;25.10;43.80
3770;DHT22;1900;48.890;9.190;2023-06-10T02:07:32;25.10;43.80
3770;DHT22;1900;48.890;9.190;2023-06-10T02:09:58;25.10;43.90
3770;DHT22;1900;48.890;9.190;2023-06-10T02:12:24;25.10;43.80
3770;DHT22;1900;48.890;9.190;2023-06-10T02:14:49;25.00;43.80
3770;DHT22;1900;48.890;9.190;2023-06-10T02:17:17;25.00;43.80
3770;DHT22;1900;48.890;9.190;2023-06-10T02:19:42;25.00;43.80
3770;DHT22;1900;48.890;9.190;2023-06-10T02:22:09;25.00;43.80
3770;DHT22;1900;48.890;9.190;2023-06-10T02:24:38;24.90;43.80
3770;DHT22;1900;48.890;9.190;2023-06-10T02:27:05;24.90;43.90
3770;DHT22;1900;48.890;9.190;2023-06-10T02:29:34;24.90;43.90
3770;DHT22;1900;48.890;9.190;2023-06-10T02:32:02;24.90;43.90
3770;DHT22;1900;48.890;9.190;2023-06-10T02:34:28;24.80;43.80
3770;DHT22;1900;48.890;9.190;2023-06-10T02:36:55;24.80;43.90
3770;DHT22;1900;48.890;9.190;2023-06-10T02:39:22;24.80;43.90
3770;DHT22;1900;48.890;9.190;2023-06-10T02:41:48;24.80;43.90
3770;DHT22;1900;48.890;9.190;2023-06-10T02:44:14;24.80;43.90
3770;DHT22;1900;48.890;9.190;2023-06-10T02:46:40;24.70;43.90
3770;DHT22;1900;48.890;9.190;2023-06-10T02:49:06;24.70;43.90
3770;DHT22;1900;48.890;9.190;2023-06-10T02:51:32;24.70;43.90
3770;DHT22;1900;48.890;9.190;2023-06-10T02:54:00;24.70;43.90
3770;DHT22;1900;48.890;9.190;2023-06-10T02:56:26;24.60;43.80
3770;DHT22;1900;48.890;9.190;2023-06-10T02:58:53;24.60;43.80
3770;DHT22;1900;48.890;9.190;2023-06-10T03:01:21;24.60;43.90
3770;DHT22;1900;48.890;9.190;2023-06-10T03:03:55;24.50;43.90
3770;DHT22;1900;48.890;9.190;2023-06-10T03:06:21;24.50;43.90
3770;DHT22;1900;48.890;9.190;2023-06-10T03:08:50;24.50;43.90
3770;DHT22;1900;48.890;9.190;2023-06-10T03:11:18;24.50;44.00
3770;DHT22;1900;48.890;9.190;2023-06-10T03:13:45;24.50;44.00
3770;DHT22;1900;48.890;9.190;2023-06-10T03:16:14;24.50;44.00
3770;DHT22;1900;48.890;9.190;2023-06-10T03:18:41;24.40;44.00
3770;DHT22;1900;48.890;9.190;2023-06-10T03:21:07;24.40;44.00
3770;DHT22;1900;48.890;9.190;2023-06-10T03:23:34;24.40;44.00
3770;DHT22;1900;48.890;9.190;2023-06-10T03:26:01;24.40;44.00
3770;DHT22;1900;48.890;9.190;2023-06-10T03:28:29;24.40;44.10
3770;DHT22;1900;48.890;9.190;2023-06-10T03:30:55;24.40;44.10
3770;DHT22;1900;48.890;9.190;2023-06-10T03:33:23;24.40;44.20
3770;DHT22;1900;48.890;9.190;2023-06-10T03:35:50;24.30;44.10
3770;DHT22;1900;48.890;9.190;2023-06-10T03:38:16;24.40;44.20
3770;DHT22;1900;48.890;9.190;2023-06-10T03:40:42;24.40;44.20
3770;DHT22;1900;48.890;9.190;2023-06-10T03:43:09;24.30;44.20
3770;DHT22;1900;48.890;9.190;2023-06-10T03:45:35;24.30;44.20
3770;DHT22;1900;48.890;9.190;2023-06-10T03:48:02;24.30;44.20
3770;DHT22;1900;48.890;9.190;2023-06-10T03:50:37;24.30;44.20
3770;DHT22;1900;48.890;9.190;2023-06-10T03:53:03;24.30;44.30
3770;DHT22;1900;48.890;9.190;2023-06-10T03:55:29;24.30;44.90
3770;DHT22;1900;48.890;9.190;2023-06-10T03:57:57;24.20;44.30
3770;DHT22;1900;48.890;9.190;2023-06-10T04:00:23;24.30;44.40
3770;DHT22;1900;48.890;9.190;2023-06-10T04:02:49;24.30;44.40
3770;DHT22;1900;48.890;9.190;2023-06-10T04:05:37;24.30;44.40
3770;DHT22;1900;48.890;9.190;2023-06-10T04:08:02;24.20;44.40
3770;DHT22;1900;48.890;9.190;2023-06-10T04:10:28;24.20;44.40
3770;DHT22;1900;48.890;9.190;2023-06-10T04:12:54;24.20;44.40
3770;DHT22;1900;48.890;9.190;2023-06-10T04:15:22;24.20;44.40
3770;DHT22;1900;48.890;9.190;2023-06-10T04:17:48;24.20;44.50
3770;DHT22;1900;48.890;9.190;2023-06-10T04:20:16;24.20;44.60
3770;DHT22;1900;48.890;9.190;2023-06-10T04:22:44;24.20;44.60
3770;DHT22;1900;48.890;9.190;2023-06-10T04:25:10;24.20;44.60
3770;DHT22;1900;48.890;9.190;2023-06-10T04:27:37;24.20;44.70
3770;DHT22;1900;48.890;9.190;2023-06-10T04:30:03;24.30;44.80
3770;DHT22;1900;48.890;9.190;2023-06-10T04:32:31;24.30;44.80
3770;DHT22;1900;48.890;9.190;2023-06-10T04:34:56;24.20;44.90
3770;DHT22;1900;48.890;9.190;2023-06-10T04:37:23;24.30;44.90
3770;DHT22;1900;48.890;9.190;2023-06-10T04:39:49;24.30;45.00
3770;DHT22;1900;48.890;9.190;2023-06-10T04:42:15;24.30;45.00
3770;DHT22;1900;48.890;9.190;2023-06-10T04:44:41;24.30;45.10
3770;DHT22;1900;48.890;9.190;2023-06-10T04:47:07;24.30;45.10
3770;DHT22;1900;48.890;9.190;2023-06-10T04:49:33;24.30;45.10
3770;DHT22;1900;48.890;9.190;2023-06-10T04:51:59;24.40;45.20
3770;DHT22;1900;48.890;9.190;2023-06-10T04:54:25;24.40;45.30
3770;DHT22;1900;48.890;9.190;2023-06-10T04:56:51;24.40;45.30
3770;DHT22;1900;48.890;9.190;2023-06-10T04:59:17;24.50;45.40
3770;DHT22;1900;48.890;9.190;2023-06-10T05:01:43;24.50;45.40
3770;DHT22;1900;48.890;9.190;2023-06-10T05:04:08;24.50;45.40
3770;DHT22;1900;48.890;9.190;2023-06-10T05:06:34;24.50;45.50
3770;DHT22;1900;48.890;9.190;2023-06-10T05:09:01;24.50;45.50
3770;DHT22;1900;48.890;9.190;2023-06-10T05:11:27;24.60;45.60
3770;DHT22;1900;48.890;9.190;2023-06-10T05:13:53;24.50;45.50
3770;DHT22;1900;48.890;9.190;2023-06-10T05:16:18;24.60;45.70
3770;DHT22;1900;48.890;9.190;2023-06-10T05:18:44;24.60;45.70
3770;DHT22;1900;48.890;9.190;2023-06-10T05:21:10;24.60;46.30
3770;DHT22;1900;48.890;9.190;2023-06-10T05:23:35;24.70;45.80
3770;DHT22;1900;48.890;9.190;2023-06-10T05:26:02;24.70;45.90
3770;DHT22;1900;48.890;9.190;2023-06-10T05:28:27;24.70;45.90
3770;DHT22;1900;48.890;9.190;2023-06-10T05:30:53;24.70;45.90
3770;DHT22;1900;48.890;9.190;2023-06-10T05:33:19;24.80;45.90
3770;DHT22;1900;48.890;9.190;2023-06-10T05:35:45;24.80;45.90
3770;DHT22;1900;48.890;9.190;2023-06-10T05:38:10;24.80;45.90
3770;DHT22;1900;48.890;9.190;2023-06-10T05:40:36;24.80;45.90
3770;DHT22;1900;48.890;9.190;2023-06-10T05:43:02;24.80;46.00
3770;DHT22;1900;48.890;9.190;2023-06-10T05:45:27;24.80;46.00
3770;DHT22;1900;48.890;9.190;2023-06-10T05:47:53;24.90;46.10
3770;DHT22;1900;48.890;9.190;2023-06-10T05:50:19;24.90;46.10
3770;DHT22;1900;48.890;9.190;2023-06-10T05:52:44;24.90;46.10
3770;DHT22;1900;48.890;9.190;2023-06-10T05:55:10;24.90;46.10
3770;DHT22;1900;48.890;9.190;2023-06-10T05:57:36;25.00;46.20
3770;DHT22;1900;48.890;9.190;2023-06-10T06:00:02;25.00;46.30
3770;DHT22;1900;48.890;9.190;2023-06-10T06:02:38;25.00;46.30
3770;DHT22;1900;48.890;9.190;2023-06-10T06:05:03;25.00;46.30
3770;DHT22;1900;48.890;9.190;2023-06-10T06:07:29;25.00;46.40
3770;DHT22;1900;48.890;9.190;2023-06-10T06:09:55;25.10;46.50
3770;DHT22;1900;48.890;9.190;2023-06-10T06:12:21;25.10;46.50
3770;DHT22;1900;48.890;9.190;2023-06-10T06:14:47;25.10;46.50
3770;DHT22;1900;48.890;9.190;2023-06-10T06:17:14;25.10;46.60
3770;DHT22;1900;48.890;9.190;2023-06-10T06:19:40;25.20;46.80
3770;DHT22;1900;48.890;9.190;2023-06-10T06:22:05;25.20;46.80
3770;DHT22;1900;48.890;9.190;2023-06-10T06:24:31;25.30;46.90
3770;DHT22;1900;48.890;9.190;2023-06-10T06:26:57;25.30;46.90
3770;DHT22;1900;48.890;9.190;2023-06-10T06:29:22;25.30;47.00
3770;DHT22;1900;48.890;9.190;2023-06-10T06:31:48;25.40;47.00
3770;DHT22;1900;48.890;9.190;2023-06-10T06:34:14;25.40;47.10
3770;DHT22;1900;48.890;9.190;2023-06-10T06:36:39;25.40;47.10
3770;DHT22;1900;48.890;9.190;2023-06-10T06:39:06;25.40;47.10
3770;DHT22;1900;48.890;9.190;2023-06-10T06:41:32;25.50;47.30
3770;DHT22;1900;48.890;9.190;2023-06-10T06:43:58;25.50;47.30
3770;DHT22;1900;48.890;9.190;2023-06-10T06:46:29;25.60;47.40
3770;DHT22;1900;48.890;9.190;2023-06-10T06:48:55;25.60;47.40
3770;DHT22;1900;48.890;9.190;2023-06-10T06:51:20;25.70;47.50
3770;DHT22;1900;48.890;9.190;2023-06-10T06:53:46;25.70;47.50
3770;DHT22;1900;48.890;9.190;2023-06-10T06:56:12;25.80;47.60
3770;DHT22;1900;48.890;9.190;2023-06-10T06:58:38;25.80;47.60
3770;DHT22;1900;48.890;9.190;2023-06-10T07:01:04;25.90;47.70
3770;DHT22;1900;48.890;9.190;2023-06-10T07:03:30;25.90;47.70
3770;DHT22;1900;48.890;9.190;2023-06-10T07:05:56;26.00;47.80
3770;DHT22;1900;48.890;9.190;2023-06-10T07:08:21;26.00;47.80
3770;DHT22;1900;48.890;9.190;2023-06-10T07:10:47;26.10;47.90
3770;DHT22;1900;48.890;9.190;2023-06-10T07:13:14;26.10;47.80
3770;DHT22;1900;48.890;9.190;2023-06-10T07:15:40;26.10;47.90
3770;DHT22;1900;48.890;9.190;2023-06-10T07:18:06;26.20;47.90
3770;DHT22;1900;48.890;9.190;2023-06-10T07:20:31;26.20;47.90
3770;DHT22;1900;48.890;9.190;2023-06-10T07:22:57;26.30;48.10
3770;DHT22;1900;48.890;9.190;2023-06-10T07:25:23;26.30;48.20
3770;DHT22;1900;48.890;9.190;2023-06-10T07:27:49;26.40;48.20
3770;DHT22;1900;48.890;9.190;2023-06-10T07:30:14;26.40;48.20
3770;DHT22;1900;48.890;9.190;2023-06-10T07:32:40;26.50;48.40
3770;DHT22;1900;48.890;9.190;2023-06-10T07:35:08;26.50;48.30
3770;DHT22;1900;48.890;9.190;2023-06-10T07:37:35;26.60;48.50
3770;DHT22;1900;48.890;9.190;2023-06-10T07:40:00;26.60;48.50
3770;DHT22;1900;48.890;9.190;2023-06-10T07:42:26;26.70;48.60
3770;DHT22;1900;48.890;9.190;2023-06-10T07:44:52;26.80;48.70
3770;DHT22;1900;48.890;9.190;2023-06-10T07:47:18;26.90;48.80
3770;DHT22;1900;48.890;9.190;2023-06-10T07:49:43;26.90;48.70
3770;DHT22;1900;48.890;9.190;2023-06-10T07:52:09;26.90;48.70
3770;DHT22;1900;48.890;9.190;2023-06-10T07:54:35;27.00;48.80
3770;DHT22;1900;48.890;9.190;2023-06-10T07:57:00;27.10;49.00
3770;DHT22;1900;48.890;9.190;2023-06-10T07:59:26;27.20;49.00
3770;DHT22;1900;48.890;9.190;2023-06-10T08:01:53;27.20;49.10
3770;DHT22;1900;48.890;9.190;2023-06-10T08:04:18;27.30;49.20
3770;DHT22;1900;48.890;9.190;2023-06-10T08:06:44;27.40;49.30
3770;DHT22;1900;48.890;9.190;2023-06-10T08:09:10;27.50;49.40
3770;DHT22;1900;48.890;9.190;2023-06-10T08:11:36;27.50;49.30
3770;DHT22;1900;48.890;9.190;2023-06-10T08:14:01;27.60;49.40
3770;DHT22;1900;48.890;9.190;2023-06-10T08:16:27;27.70;49.50
3770;DHT22;1900;48.890;9.190;2023-06-10T08:18:53;27.80;49.60
3770;DHT22;1900;48.890;9.190;2023-06-10T08:21:19;27.80;49.60
3770;DHT22;1900;48.890;9.190;2023-06-10T08:23:45;27.90;49.60
3770;DHT22;1900;48.890;9.190;2023-06-10T08:26:10;28.00;49.70
3770;DHT22;1900;48.890;9.190;2023-06-10T08:28:36;28.10;49.80
3770;DHT22;1900;48.890;9.190;2023-06-10T08:31:02;28.20;49.90
3770;DHT22;1900;48.890;9.190;2023-06-10T08:33:27;28.30;49.90
3770;DHT22;1900;48.890;9.190;2023-06-10T08:35:53;28.30;49.90
3770;DHT22;1900;48.890;9.190;2023-06-10T08:38:19;28.40;49.90
3770;DHT22;1900;48.890;9.190;2023-06-10T08:40:45;28.50;50.00
3770;DHT22;1900;48.890;9.190;2023-06-10T08:43:17;28.60;50.00
3770;DHT22;1900;48.890;9.190;2023-06-10T08:45:48;28.70;50.10
3770;DHT22;1900;48.890;9.190;2023-06-10T08:48:17;28.80;50.10
3770;DHT22;1900;48.890;9.190;2023-06-10T08:50:45;28.80;50.00
3770;DHT22;1900;48.890;9.190;2023-06-10T08:53:14;29.00;50.20
3770;DHT22;1900;48.890;9.190;2023-06-10T08:55:42;29.00;50.10
3770;DHT22;1900;48.890;9.190;2023-06-10T08:58:10;29.10;50.20
3770;DHT22;1900;48.890;9.190;2023-06-10T09:00:38;29.20;50.30
3770;DHT22;1900;48.890;9.190;2023-06-10T09:03:04;29.30;50.30
3770;DHT22;1900;48.890;9.190;2023-06-10T09:05:33;29.40;50.20
3770;DHT22;1900;48.890;9.190;2023-06-10T09:08:00;29.40;50.20
3770;DHT22;1900;48.890;9.190;2023-06-10T09:10:27;29.50;50.20
3770;DHT22;1900;48.890;9.190;2023-06-10T09:12:53;29.60;50.20
3770;DHT22;1900;48.890;9.190;2023-06-10T09:15:19;29.60;50.00
3770;DHT22;1900;48.890;9.190;2023-06-10T09:17:44;29.70;49.90
3770;DHT22;1900;48.890;9.190;2023-06-10T09:20:11;29.80;50.00
3770;DHT22;1900;48.890;9.190;2023-06-10T09:22:37;29.80;50.00
3770;DHT22;1900;48.890;9.190;2023-06-10T09:25:04;29.90;50.00
3770;DHT22;1900;48.890;9.190;2023-06-10T09:27:31;29.90;49.90
3770;DHT22;1900;48.890;9.190;2023-06-10T09:29:59;30.00;49.90
3770;DHT22;1900;48.890;9.190;2023-06-10T09:32:26;30.10;50.00
3770;DHT22;1900;48.890;9.190;2023-06-10T09:34:52;30.10;50.10
3770;DHT22;1900;48.890;9.190;2023-06-10T09:37:24;30.20;50.10
3770;DHT22;1900;48.890;9.190;2023-06-10T09:40:04;30.20;50.00
3770;DHT22;1900;48.890;9.190;2023-06-10T09:42:34;30.30;49.90
3770;DHT22;1900;48.890;9.190;2023-06-10T09:45:04;30.40;49.90
3770;DHT22;1900;48.890;9.190;2023-06-10T09:47:30;30.40;50.50
3770;DHT22;1900;48.890;9.190;2023-06-10T09:49:56;30.40;49.90
3770;DHT22;1900;48.890;9.190;2023-06-10T09:52:26;30.50;49.90
3770;DHT22;1900;48.890;9.190;2023-06-10T09:54:53;30.60;50.00
3770;DHT22;1900;48.890;9.190;2023-06-10T09:57:21;30.70;50.00
3770;DHT22;1900;48.890;9.190;2023-06-10T09:59:47;30.80;49.90
3770;DHT22;1900;48.890;9.190;2023-06-10T10:02:16;30.80;49.70
3770;DHT22;1900;48.890;9.190;2023-06-10T10:04:43;30.90;49.60
3770;DHT22;1900;48.890;9.190;2023-06-10T10:07:10;30.90;49.70
3770;DHT22;1900;48.890;9.190;2023-06-10T10:09:37;31.00;49.90
3770;DHT22;1900;48.890;9.190;2023-06-10T10:12:11;31.10;49.60
3770;DHT22;1900;48.890;9.190;2023-06-10T10:14:38;31.10;49.80
3770;DHT22;1900;48.890;9.190;2023-06-10T10:17:10;31.20;49.80
3770;DHT22;1900;48.890;9.190;2023-06-10T10:19:53;31.30;49.90
3770;DHT22;1900;48.890;9.190;2023-06-10T10:22:26;31.40;49.90
3770;DHT22;1900;48.890;9.190;2023-06-10T10:25:01;31.50;49.80
3770;DHT22;1900;48.890;9.190;2023-06-10T10:27:30;31.60;49.90
3770;DHT22;1900;48.890;9.190;2023-06-10T10:29:58;31.70;49.70
3770;DHT22;1900;48.890;9.190;2023-06-10T10:32:45;31.80;49.80
3770;DHT22;1900;48.890;9.190;2023-06-10T10:35:22;31.90;49.70
3770;DHT22;1900;48.890;9.190;2023-06-10T10:37:52;31.90;49.50
3770;DHT22;1900;48.890;9.190;2023-06-10T10:40:18;32.00;49.70
3770;DHT22;1900;48.890;9.190;2023-06-10T10:42:45;32.10;49.60
3770;DHT22;1900;48.890;9.190;2023-06-10T10:45:12;32.20;49.50
3770;DHT22;1900;48.890;9.190;2023-06-10T10:47:38;32.30;49.50
3770;DHT22;1900;48.890;9.190;2023-06-10T10:50:15;32.40;49.40
3770;DHT22;1900;48.890;9.190;2023-06-10T10:53:01;32.50;49.10
3770;DHT22;1900;48.890;9.190;2023-06-10T10:55:27;32.50;49.00
3770;DHT22;1900;48.890;9.190;2023-06-10T10:57:57;32.60;49.50
3770;DHT22;1900;48.890;9.190;2023-06-10T11:00:53;32.70;49.70
3770;DHT22;1900;48.890;9.190;2023-06-10T11:03:18;32.70;49.50
3770;DHT22;1900;48.890;9.190;2023-06-10T11:05:44;32.80;49.40
3770;DHT22;1900;48.890;9.190;2023-06-10T11:10:54;33.00;49.60
3770;DHT22;1900;48.890;9.190;2023-06-10T11:13:21;33.10;49.40
3770;DHT22;1900;48.890;9.190;2023-06-10T11:15:49;33.20;49.60
3770;DHT22;1900;48.890;9.190;2023-06-10T11:18:26;33.30;49.60
3770;DHT22;1900;48.890;9.190;2023-06-10T11:20:57;33.30;49.30
3770;DHT22;1900;48.890;9.190;2023-06-10T11:33:58;33.60;49.20
3770;DHT22;1900;48.890;9.190;2023-06-10T11:36:25;33.70;48.60
3770;DHT22;1900;48.890;9.190;2023-06-10T11:38:56;33.80;48.60
3770;DHT22;1900;48.890;9.190;2023-06-10T11:41:27;33.80;48.30
3770;DHT22;1900;48.890;9.190;2023-06-10T11:43:53;33.80;48.50
3770;DHT22;1900;48.890;9.190;2023-06-10T11:46:21;33.90;48.90
3770;DHT22;1900;48.890;9.190;2023-06-10T11:48:52;33.90;48.80
3770;DHT22;1900;48.890;9.190;2023-06-10T11:51:18;34.00;48.70
3770;DHT22;1900;48.890;9.190;2023-06-10T11:53:46;34.00;48.70
3770;DHT22;1900;48.890;9.190;2023-06-10T11:56:12;34.10;48.80
3770;DHT22;1900;48.890;9.190;2023-06-10T11:58:41;34.20;48.50
3770;DHT22;1900;48.890;9.190;2023-06-10T12:01:07;34.30;48.40
3770;DHT22;1900;48.890;9.190;2023-06-10T12:03:37;34.40;48.60
3770;DHT22;1900;48.890;9.190;2023-06-10T12:06:06;34.50;48.80
3770;DHT22;1900;48.890;9.190;2023-06-10T12:08:33;34.60;48.80
3770;DHT22;1900;48.890;9.190;2023-06-10T12:10:59;34.60;48.60
3770;DHT22;1900;48.890;9.190;2023-06-10T12:13:28;34.70;48.70
3770;DHT22;1900;48.890;9.190;2023-06-10T12:15:54;34.80;48.50
3770;DHT22;1900;48.890;9.190;2023-06-10T12:18:22;34.90;48.50
3770;DHT22;1900;48.890;9.190;2023-06-10T12:20:48;34.90;48.10
3770;DHT22;1900;48.890;9.190;2023-06-10T12:23:15;34.90;47.90
3770;DHT22;1900;48.890;9.190;2023-06-10T12:25:52;34.90;47.70
3770;DHT22;1900;48.890;9.190;2023-06-10T12:28:21;34.90;47.80
3770;DHT22;1900;48.890;9.190;2023-06-10T12:30:47;34.90;48.10
3770;DHT22;1900;48.890;9.190;2023-06-10T12:33:20;34.90;48.00
3770;DHT22;1900;48.890;9.190;2023-06-10T12:35:52;34.90;47.60
3770;DHT22;1900;48.890;9.190;2023-06-10T12:38:25;34.90;47.60
3770;DHT22;1900;48.890;9.190;2023-06-10T12:41:01;34.90;47.60
3770;DHT22;1900;48.890;9.190;2023-06-10T12:43:27;34.90;47.40
3770;DHT22;1900;48.890;9.190;2023-06-10T12:45:53;34.90;47.20
3770;DHT22;1900;48.890;9.190;2023-06-10T12:48:21;34.90;47.30
3770;DHT22;1900;48.890;9.190;2023-06-10T12:50:55;34.90;47.00
3770;DHT22;1900;48.890;9.190;2023-06-10T12:53:21;35.00;47.40
3770;DHT22;1900;48.890;9.190;2023-06-10T12:55:48;35.00;47.50
3770;DHT22;1900;48.890;9.190;2023-06-10T12:58:14;35.10;47.60
3770;DHT22;1900;48.890;9.190;2023-06-10T13:00:40;35.20;47.60
3770;DHT22;1900;48.890;9.190;2023-06-10T13:03:08;35.30;47.70
3770;DHT22;1900;48.890;9.190;2023-06-10T13:05:35;35.40;47.40
3770;DHT22;1900;48.890;9.190;2023-06-10T13:08:07;35.40;47.50
3770;DHT22;1900;48.890;9.190;2023-06-10T13:10:36;35.50;47.80
3770;DHT22;1900;48.890;9.190;2023-06-10T13:13:02;35.60;46.90
3770;DHT22;1900;48.890;9.190;2023-06-10T13:15:31;35.60;47.40
3770;DHT22;1900;48.890;9.190;2023-06-10T13:17:57;35.70;47.60
3770;DHT22;1900;48.890;9.190;2023-06-10T13:20:24;35.80;47.40
3770;DHT22;1900;48.890;9.190;2023-06-10T13:22:50;35.90;47.40
3770;DHT22;1900;48.890;9.190;2023-06-10T13:25:15;36.00;47.50
3770;DHT22;1900;48.890;9.190;2023-06-10T13:27:41;36.10;47.50
3770;DHT22;1900;48.890;9.190;2023-06-10T13:30:08;36.20;47.30
3770;DHT22;1900;48.890;9.190;2023-06-10T13:32:35;36.20;47.30
3770;DHT22;1900;48.890;9.190;2023-06-10T13:35:01;36.30;47.10
3770;DHT22;1900;48.890;9.190;2023-06-10T13:37:27;36.30;46.90
3770;DHT22;1900;48.890;9.190;2023-06-10T13:39:53;36.40;47.00
3770;DHT22;1900;48.890;9.190;2023-06-10T13:42:19;36.30;46.50
3770;DHT22;1900;48.890;9.190;2023-06-10T13:44:45;36.30;46.20
3770;DHT22;1900;48.890;9.190;2023-06-10T13:47:13;36.30;46.10
3770;DHT22;1900;48.890;9.190;2023-06-10T13:49:38;36.30;46.40
3770;DHT22;1900;48.890;9.190;2023-06-10T13:52:06;36.40;46.80
3770;DHT22;1900;48.890;9.190;2023-06-10T13:54:32;36.50;47.10
3770;DHT22;1900;48.890;9.190;2023-06-10T13:56:58;36.60;47.10
3770;DHT22;1900;48.890;9.190;2023-06-10T13:59:24;36.60;46.60
3770;DHT22;1900;48.890;9.190;2023-06-10T14:01:50;36.70;46.50
3770;DHT22;1900;48.890;9.190;2023-06-10T14:04:15;36.70;46.60
3770;DHT22;1900;48.890;9.190;2023-06-10T14:06:41;36.80;46.50
3770;DHT22;1900;48.890;9.190;2023-06-10T14:09:07;36.80;46.40
3770;DHT22;1900;48.890;9.190;2023-06-10T14:11:32;36.90;46.00
3770;DHT22;1900;48.890;9.190;2023-06-10T14:13:58;36.90;46.10
3770;DHT22;1900;48.890;9.190;2023-06-10T14:16:24;36.90;46.30
3770;DHT22;1900;48.890;9.190;2023-06-10T14:18:50;36.90;46.30
3770;DHT22;1900;48.890;9.190;2023-06-10T14:21:19;37.00;46.40
3770;DHT22;1900;48.890;9.190;2023-06-10T14:23:44;37.10;46.80
3770;DHT22;1900;48.890;9.190;2023-06-10T14:26:11;37.20;46.70
3770;DHT22;1900;48.890;9.190;2023-06-10T14:28:37;37.20;46.30
3770;DHT22;1900;48.890;9.190;2023-06-10T14:31:03;37.20;46.00
3770;DHT22;1900;48.890;9.190;2023-06-10T14:33:29;37.30;45.90
3770;DHT22;1900;48.890;9.190;2023-06-10T14:35:56;37.30;45.70
3770;DHT22;1900;48.890;9.190;2023-06-10T14:38:22;37.30;45.30
3770;DHT22;1900;48.890;9.190;2023-06-10T14:40:47;37.30;44.90
3770;DHT22;1900;48.890;9.190;2023-06-10T14:43:13;37.30;45.10
3770;DHT22;1900;48.890;9.190;2023-06-10T14:45:40;37.30;45.30
3770;DHT22;1900;48.890;9.190;2023-06-10T14:48:07;37.20;44.90
3770;DHT22;1900;48.890;9.190;2023-06-10T14:50:36;37.30;44.80
3770;DHT22;1900;48.890;9.190;2023-06-10T14:53:02;37.20;44.00
3770;DHT22;1900;48.890;9.190;2023-06-10T14:55:28;37.20;44.60
3770;DHT22;1900;48.890;9.190;2023-06-10T14:57:54;37.20;44.60
3770;DHT22;1900;48.890;9.190;2023-06-10T15:00:20;37.20;44.60
3770;DHT22;1900;48.890;9.190;2023-06-10T15:02:48;37.20;44.60
3770;DHT22;1900;48.890;9.190;2023-06-10T15:05:14;37.10;44.60
3770;DHT22;1900;48.890;9.190;2023-06-10T15:07:43;37.10;44.40
3770;DHT22;1900;48.890;9.190;2023-06-10T15:10:10;37.10;44.50
3770;DHT22;1900;48.890;9.190;2023-06-10T15:12:36;37.10;44.70
3770;DHT22;1900;48.890;9.190;2023-06-10T15:15:02;37.10;45.30
3770;DHT22;1900;48.890;9.190;2023-06-10T15:17:28;37.00;44.80
3770;DHT22;1900;48.890;9.190;2023-06-10T15:19:54;37.00;44.90
3770;DHT22;1900;48.890;9.190;2023-06-10T15:22:20;37.00;44.40
3770;DHT22;1900;48.890;9.190;2023-06-10T15:24:46;37.00;44.00
3770;DHT22;1900;48.890;9.190;2023-06-10T15:27:11;36.90;43.90
3770;DHT22;1900;48.890;9.190;2023-06-10T15:29:37;36.80;43.70
3770;DHT22;1900;48.890;9.190;2023-06-10T15:32:03;36.80;44.00
3770;DHT22;1900;48.890;9.190;2023-06-10T15:34:29;36.70;43.70
3770;DHT22;1900;48.890;9.190;2023-06-10T15:36:54;36.70;43.80
3770;DHT22;1900;48.890;9.190;2023-06-10T15:39:20;36.60;43.40
3770;DHT22;1900;48.890;9.190;2023-06-10T15:41:46;36.50;43.30
3770;DHT22;1900;48.890;9.190;2023-06-10T15:44:11;36.40;43.20
3770;DHT22;1900;48.890;9.190;2023-06-10T15:46:37;36.30;43.20
3770;DHT22;1900;48.890;9.190;2023-06-10T15:49:03;36.30;43.10
3770;DHT22;1900;48.890;9.190;2023-06-10T15:51:29;36.20;43.30
3770;DHT22;1900;48.890;9.190;2023-06-10T15:53:55;36.10;43.50
3770;DHT22;1900;48.890;9.190;2023-06-10T15:56:21;36.00;43.20
3770;DHT22;1900;48.890;9.190;2023-06-10T15:58:48;36.00;43.30
3770;DHT22;1900;48.890;9.190;2023-06-10T16:01:14;35.90;43.30
3770;DHT22;1900;48.890;9.190;2023-06-10T16:03:40;35.80;43.20
3770;DHT22;1900;48.890;9.190;2023-06-10T16:06:06;35.80;43.20
3770;DHT22;1900;48.890;9.190;2023-06-10T16:08:33;35.70;43.20
3770;DHT22;1900;48.890;9.190;2023-06-10T16:10:58;35.60;43.10
3770;DHT22;1900;48.890;9.190;2023-06-10T16:13:24;35.60;43.30
3770;DHT22;1900;48.890;9.190;2023-06-10T16:15:50;35.50;43.10
3770;DHT22;1900;48.890;9.190;2023-06-10T16:18:16;35.50;43.30